Time;durP1;ratioP1;P1;durP2;ratioP2;P2;SDS_P1;SDS_P2;PMS_P1;PMS_P2;Temp;Humidity;BMP_temperature;BMP_pressure;BME280_temperature;BME280_humidity;BME280_pressure;Samples;Min_cycle;Max_cycle;Signal;HPM_P1;HPM_P2
2022/06/05 00:01:29;;;;;;;8.57;6.50;;;;;;;23.08;52.65;95103.78;5037807;28;20207;-63
2022/06/05 00:04:29;;;;;;;9.70;6.35;;;;;;;23.04;52.43;95103.41;5008525;28;20833;-65
2022/06/05 00:07:10;;;;;;;13.60;6.60;;;;;;;22.98;53.93;95103.50;4983003;28;20235;-64
2022/06/05 00:10:08;;;;;;;10.63;6.22;;;;;;;22.97;54.06;95101.88;4983720;28;20227;-67
2022/06/05 00:12:46;;;;;;;7.90;6.75;;;;;;;22.84;53.37;95109.00;5000923;28;20278;-67
2022/06/05 00:15:11;;;;;;;9.85;6.70;;;;;;;22.86;53.77;95096.19;5006173;28;20277;-63
2022/06/05 00:17:37;;;;;;;7.95;6.10;;;;;;;22.89;54.35;95087.69;4984814;28;20219;-64
2022/06/05 00:20:05;;;;;;;8.40;6.40;;;;;;;22.88;54.35;95095.94;4987586;28;20239;-67
2022/06/05 00:22:31;;;;;;;7.15;6.28;;;;;;;22.93;54.15;95098.78;4977450;28;20209;-62
2022/06/05 00:24:56;;;;;;;11.48;6.75;;;;;;;22.86;54.65;95109.59;4985549;28;21291;-67
2022/06/05 00:27:29;;;;;;;9.85;6.25;;;;;;;22.96;53.95;95097.50;4989247;28;20313;-63
2022/06/05 00:30:03;;;;;;;10.35;6.68;;;;;;;22.87;54.85;95105.06;4985825;28;20249;-68
2022/06/05 00:32:41;;;;;;;7.03;6.32;;;;;;;22.49;56.01;95103.44;4986869;28;20255;-64
2022/06/05 00:35:09;;;;;;;8.32;6.45;;;;;;;22.66;55.47;95109.03;4987676;28;20234;-63
2022/06/05 00:38:13;;;;;;;8.82;6.38;;;;;;;22.73;55.08;95114.31;4986330;28;20215;-65
2022/06/05 00:41:05;;;;;;;8.48;6.00;;;;;;;22.40;56.61;95124.38;4995632;28;20279;-63
2022/06/05 00:43:30;;;;;;;7.38;6.15;;;;;;;22.09;57.59;95122.59;4990652;28;20289;-66
2022/06/05 00:45:57;;;;;;;7.18;6.00;;;;;;;22.30;57.27;95124.06;5007886;28;20203;-68
2022/06/05 00:48:23;;;;;;;9.02;6.53;;;;;;;22.43;56.56;95113.22;5005714;28;20222;-63
2022/06/05 00:50:48;;;;;;;8.18;6.40;;;;;;;22.49;56.43;95113.34;4991954;28;20880;-67
2022/06/05 00:53:14;;;;;;;9.45;7.32;;;;;;;22.50;56.57;95113.13;5006757;28;20218;-66
2022/06/05 00:55:43;;;;;;;7.43;6.20;;;;;;;22.32;57.06;95118.47;5003036;28;20639;-67
2022/06/05 00:58:09;;;;;;;6.95;6.05;;;;;;;22.42;57.03;95113.41;5007056;28;20259;-64
2022/06/05 01:00:38;;;;;;;11.93;6.55;;;;;;;22.44;56.87;95109.47;5036840;28;20298;-63
2022/06/05 01:03:07;;;;;;;8.68;6.07;;;;;;;22.52;56.43;95112.91;5007706;28;20292;-61
2022/06/05 01:05:33;;;;;;;11.35;6.43;;;;;;;22.42;56.58;95127.63;5014453;28;20592;-67
2022/06/05 01:07:59;;;;;;;7.80;7.00;;;;;;;22.43;56.84;95123.94;5007859;28;20246;-64
2022/06/05 01:11:03;;;;;;;8.95;7.13;;;;;;;22.41;56.79;95115.28;5015902;28;20268;-65
2022/06/05 01:13:49;;;;;;;11.93;7.07;;;;;;;22.31;57.09;95116.84;4992319;28;20352;-67
2022/06/05 01:16:27;;;;;;;9.52;6.72;;;;;;;22.41;57.27;95106.44;4988788;28;20271;-66
2022/06/05 01:19:31;;;;;;;8.63;6.82;;;;;;;22.51;56.42;95117.44;4985780;28;20691;-64
2022/06/05 01:22:27;;;;;;;11.30;6.70;;;;;;;22.45;56.48;95115.66;5007326;28;20239;-63
2022/06/05 01:25:17;;;;;;;8.02;6.72;;;;;;;22.31;57.26;95128.38;4992086;28;20221;-64
2022/06/05 01:27:50;;;;;;;7.38;5.85;;;;;;;22.20;57.66;95113.03;4986774;28;20226;-65
2022/06/05 01:30:20;;;;;;;8.10;6.70;;;;;;;22.28;57.63;95109.25;5008438;28;20230;-67
2022/06/05 01:33:24;;;;;;;12.80;6.43;;;;;;;22.26;57.51;95112.16;4991488;28;20226;-67
2022/06/05 01:36:12;;;;;;;8.48;6.45;;;;;;;22.13;57.97;95113.09;4948975;28;20470;-65
2022/06/05 01:38:56;;;;;;;8.75;6.07;;;;;;;21.84;59.16;95119.94;4932960;29;20217;-66
2022/06/05 01:41:32;;;;;;;7.95;6.60;;;;;;;22.07;58.25;95107.78;4935362;28;20215;-68
2022/06/05 01:44:03;;;;;;;12.98;7.13;;;;;;;21.97;58.33;95114.47;4947815;28;20341;-68
2022/06/05 01:46:36;;;;;;;7.50;6.47;;;;;;;22.04;57.74;95111.72;4952157;28;20221;-68
2022/06/05 01:49:09;;;;;;;8.32;6.30;;;;;;;22.13;57.66;95114.94;4928820;29;20209;-67
2022/06/05 01:51:44;;;;;;;7.25;6.38;;;;;;;22.12;57.61;95113.28;4958550;28;20442;-65
2022/06/05 01:54:16;;;;;;;9.35;6.22;;;;;;;21.98;57.96;95116.09;4934987;28;20228;-66
2022/06/05 01:56:51;;;;;;;9.50;6.70;;;;;;;21.98;58.11;95110.75;4952005;28;20232;-64
2022/06/05 01:59:43;;;;;;;12.55;6.72;;;;;;;21.98;57.90;95118.78;4932025;28;20228;-62
2022/06/05 02:02:13;;;;;;;7.82;6.60;;;;;;;21.99;57.96;95111.56;4963656;28;20240;-68
2022/06/05 02:04:49;;;;;;;8.82;7.20;;;;;;;21.91;58.20;95101.94;4964130;28;20299;-64
2022/06/05 02:07:33;;;;;;;7.93;7.15;;;;;;;22.04;58.00;95103.69;4965462;28;20252;-62
2022/06/05 02:10:07;;;;;;;8.27;6.80;;;;;;;22.05;57.78;95099.97;4962443;28;20260;-62
2022/06/05 02:12:34;;;;;;;8.23;6.43;;;;;;;22.00;58.06;95097.16;4970128;28;20310;-68
2022/06/05 02:15:01;;;;;;;13.40;7.35;;;;;;;21.95;57.86;95095.13;5013969;28;20291;-68
2022/06/05 02:17:27;;;;;;;12.77;7.03;;;;;;;22.00;57.93;95095.28;5024588;28;20223;-64
2022/06/05 02:19:52;;;;;;;9.18;7.70;;;;;;;22.06;57.56;95100.81;5005779;28;20277;-63
2022/06/05 02:22:34;;;;;;;7.13;6.43;;;;;;;21.94;57.81;95104.19;5012647;28;20238;-62
2022/06/05 02:25:00;;;;;;;7.93;6.75;;;;;;;21.88;58.17;95099.72;5010924;28;20230;-68
2022/06/05 02:27:26;;;;;;;10.98;7.22;;;;;;;22.01;57.64;95096.09;5009391;28;20244;-68
2022/06/05 02:29:53;;;;;;;9.75;6.88;;;;;;;21.91;57.62;95104.63;5042917;28;20223;-67
2022/06/05 02:32:49;;;;;;;9.20;7.45;;;;;;;21.93;57.34;95101.75;5015792;28;20230;-65
2022/06/05 02:35:25;;;;;;;8.57;7.07;;;;;;;21.80;57.82;95100.81;5014324;28;20241;-65
2022/06/05 02:38:24;;;;;;;7.82;7.07;;;;;;;21.66;58.07;95095.81;5042162;28;20226;-63
2022/06/05 02:40:58;;;;;;;8.07;7.28;;;;;;;21.69;57.84;95093.50;5038184;28;20227;-67
2022/06/05 02:47:21;;;;;;;9.57;7.63;;;;;;;21.62;57.89;95083.88;4969481;28;20279;-67
2022/06/05 02:50:17;;;;;;;9.07;6.65;;;;;;;21.51;58.50;95080.88;4910333;29;20291;-65
2022/06/05 02:52:43;;;;;;;9.20;6.95;;;;;;;21.66;57.83;95069.03;4893969;29;20218;-64
2022/06/05 02:55:14;;;;;;;8.32;6.45;;;;;;;21.54;58.08;95082.31;4914110;29;20774;-65
2022/06/05 02:57:42;;;;;;;8.63;7.13;;;;;;;21.68;58.25;95078.50;4908416;29;20294;-68
2022/06/05 03:00:10;;;;;;;11.25;7.25;;;;;;;21.71;57.89;95083.41;4909495;29;20234;-62
2022/06/05 03:05:20;;;;;;;8.80;7.25;;;;;;;21.35;59.38;95090.22;4910543;29;20264;-63
2022/06/05 03:07:46;;;;;;;9.32;8.23;;;;;;;21.44;59.28;95085.47;4912699;29;20269;-64
2022/06/05 03:10:12;;;;;;;10.73;7.55;;;;;;;21.30;59.69;95083.88;4912152;29;20228;-61
2022/06/05 03:12:38;;;;;;;11.57;7.28;;;;;;;21.32;59.66;95087.19;4909389;28;20234;-65
2022/06/05 03:15:06;;;;;;;10.43;7.28;;;;;;;21.35;59.85;95084.06;4911911;29;20221;-64
2022/06/05 03:17:32;;;;;;;8.25;7.22;;;;;;;21.35;59.94;95090.22;4927539;29;20236;-63
2022/06/05 03:19:58;;;;;;;9.93;7.82;;;;;;;21.31;60.29;95081.00;4926894;29;20226;-63
2022/06/05 03:22:25;;;;;;;8.63;7.72;;;;;;;21.47;59.99;95094.94;4930162;29;20264;-64
2022/06/05 03:24:51;;;;;;;12.18;6.93;;;;;;;21.41;60.29;95099.28;4948536;28;20547;-68
2022/06/05 03:27:16;;;;;;;14.07;8.20;;;;;;;21.59;59.74;95099.34;4980521;28;20290;-64
2022/06/05 03:29:42;;;;;;;10.88;7.88;;;;;;;21.65;59.25;95095.00;5000182;28;20229;-64
2022/06/05 03:32:07;;;;;;;11.75;7.63;;;;;;;21.54;59.38;95101.88;5010066;28;20222;-66
2022/06/05 03:34:33;;;;;;;10.50;7.50;;;;;;;21.26;60.65;95101.41;5009132;28;20331;-63
2022/06/05 03:36:59;;;;;;;8.85;7.32;;;;;;;21.31;60.31;95101.59;5007417;28;20205;-66
2022/06/05 03:39:24;;;;;;;7.90;7.10;;;;;;;21.38;60.62;95109.59;5015582;28;20214;-66
2022/06/05 03:41:50;;;;;;;10.70;7.22;;;;;;;21.34;60.75;95104.66;5019261;28;20217;-64
2022/06/05 03:44:15;;;;;;;9.60;7.93;;;;;;;21.35;60.88;95108.94;5012447;28;20255;-64
2022/06/05 03:46:42;;;;;;;9.50;7.47;;;;;;;21.50;59.73;95114.03;5006942;28;20211;-67
2022/06/05 03:49:10;;;;;;;9.45;7.78;;;;;;;21.58;59.15;95110.28;5021413;28;20438;-63
2022/06/05 03:51:36;;;;;;;8.32;7.53;;;;;;;21.37;59.76;95092.69;5009144;28;20804;-65
2022/06/05 03:54:01;;;;;;;13.20;7.88;;;;;;;21.32;60.50;95106.72;5007195;28;20218;-66
2022/06/05 03:56:28;;;;;;;9.27;7.20;;;;;;;21.37;60.60;95116.78;5012110;28;20284;-65
2022/06/05 03:58:55;;;;;;;9.13;6.90;;;;;;;21.39;60.59;95119.28;5011767;28;20242;-65
2022/06/05 04:01:22;;;;;;;9.55;7.88;;;;;;;21.39;60.46;95121.94;4995005;28;20238;-65
2022/06/05 04:03:48;;;;;;;9.10;8.05;;;;;;;21.20;60.47;95118.31;5038387;28;20436;-66
2022/06/05 04:06:16;;;;;;;9.90;8.20;;;;;;;21.02;60.39;95116.38;5007103;28;20222;-64
2022/06/05 04:08:41;;;;;;;10.60;7.72;;;;;;;21.19;59.57;95120.16;5005795;28;20269;-64
2022/06/05 04:11:12;;;;;;;9.55;7.75;;;;;;;21.15;60.00;95124.31;5009568;28;20229;-64
2022/06/05 04:13:38;;;;;;;8.32;7.50;;;;;;;21.25;59.33;95123.84;5010080;28;20203;-66
2022/06/05 04:16:22;;;;;;;8.88;7.95;;;;;;;21.49;58.80;95125.78;5002854;28;20210;-62
2022/06/05 04:18:49;;;;;;;9.00;8.15;;;;;;;21.64;58.23;95122.78;5011513;28;20219;-65
2022/06/05 04:21:18;;;;;;;11.07;8.10;;;;;;;21.32;59.09;95120.09;5001642;28;20310;-68
2022/06/05 04:23:44;;;;;;;9.10;7.45;;;;;;;21.46;58.95;95114.69;5008369;28;20617;-68
2022/06/05 04:26:12;;;;;;;11.25;8.32;;;;;;;21.65;58.03;95108.38;5015502;28;20281;-65
2022/06/05 04:28:38;;;;;;;10.85;8.52;;;;;;;21.80;57.81;95106.16;5008099;28;20289;-65
2022/06/05 04:31:04;;;;;;;11.57;8.38;;;;;;;21.77;58.09;95100.44;4997381;28;20211;-65
2022/06/05 04:33:34;;;;;;;11.35;9.05;;;;;;;21.79;57.88;95106.41;5005678;28;20219;-67
2022/06/05 04:35:59;;;;;;;9.25;8.38;;;;;;;21.79;58.16;95106.41;5006489;28;20219;-68
2022/06/05 04:38:28;;;;;;;12.50;8.18;;;;;;;21.82;58.31;95111.31;5006238;28;20214;-67
2022/06/05 04:40:53;;;;;;;9.48;8.48;;;;;;;21.98;57.75;95105.41;5006649;28;20254;-67
2022/06/05 04:43:18;;;;;;;11.18;8.57;;;;;;;22.07;57.47;95103.25;5008025;28;20214;-66
2022/06/05 04:45:44;;;;;;;9.35;8.00;;;;;;;21.99;56.89;95099.00;5005842;28;20407;-64
2022/06/05 04:48:10;;;;;;;9.65;8.75;;;;;;;22.13;56.91;95093.50;5034443;28;20227;-67
2022/06/05 04:50:39;;;;;;;14.50;9.05;;;;;;;22.11;56.34;95101.78;5007058;28;20364;-66
2022/06/05 04:53:05;;;;;;;12.65;9.70;;;;;;;22.22;56.32;95097.56;5008490;28;20313;-69
2022/06/05 04:55:30;;;;;;;11.48;9.00;;;;;;;22.22;55.88;95089.53;5009301;28;20202;-62
2022/06/05 04:57:56;;;;;;;12.07;8.50;;;;;;;22.28;56.24;95095.88;5004980;28;20300;-66
2022/06/05 05:00:23;;;;;;;14.95;8.90;;;;;;;22.24;56.58;95101.66;5006707;28;20223;-67
2022/06/05 05:02:49;;;;;;;11.13;9.15;;;;;;;22.19;56.18;95108.72;5003110;28;20295;-68
2022/06/05 05:05:14;;;;;;;10.95;9.00;;;;;;;22.26;55.61;95112.16;5039258;28;20219;-65
2022/06/05 05:07:40;;;;;;;11.57;9.57;;;;;;;22.29;55.74;95114.38;5008890;28;20313;-64
2022/06/05 05:10:06;;;;;;;11.60;9.57;;;;;;;22.46;55.32;95107.41;5021197;28;20202;-62
2022/06/05 05:12:32;;;;;;;10.55;8.93;;;;;;;22.41;55.94;95104.56;4994745;28;20230;-66
2022/06/05 05:15:00;;;;;;;12.27;9.73;;;;;;;22.53;55.63;95111.84;5010204;28;20227;-63
2022/06/05 05:17:26;;;;;;;11.88;8.45;;;;;;;22.51;55.62;95111.25;5006552;28;20306;-66
2022/06/05 05:19:51;;;;;;;12.93;9.00;;;;;;;22.62;55.43;95110.53;5006030;28;20303;-64
2022/06/05 05:22:17;;;;;;;12.77;9.02;;;;;;;22.72;55.15;95113.50;5007866;28;20214;-67
2022/06/05 05:24:43;;;;;;;11.60;8.52;;;;;;;22.63;55.74;95115.66;5043938;28;20232;-67
2022/06/05 05:27:09;;;;;;;10.38;8.98;;;;;;;22.49;55.26;95116.84;5007936;28;20226;-67
2022/06/05 05:29:34;;;;;;;13.07;9.20;;;;;;;22.39;56.33;95129.94;5035462;28;20233;-64
2022/06/05 05:32:00;;;;;;;11.00;8.77;;;;;;;22.54;56.18;95127.72;5013990;28;20295;-67
2022/06/05 05:34:26;;;;;;;9.70;8.35;;;;;;;22.73;55.48;95125.84;5042596;28;20207;-66
2022/06/05 05:36:51;;;;;;;13.07;9.10;;;;;;;22.88;54.83;95128.97;5046175;28;20205;-62
2022/06/05 05:44:52;;;;;;;9.02;8.07;;;;;;;23.27;53.80;95123.31;5007997;28;20233;-68
2022/06/05 05:47:21;;;;;;;8.80;7.82;;;;;;;23.40;53.60;95125.00;5012787;28;20227;-68
2022/06/05 05:49:51;;;;;;;9.15;8.35;;;;;;;23.41;53.56;95118.56;5009776;28;20226;-67
2022/06/05 05:52:17;;;;;;;10.40;7.63;;;;;;;23.31;54.04;95119.16;5009078;28;20222;-63
2022/06/05 05:54:42;;;;;;;11.73;8.80;;;;;;;23.39;53.76;95117.97;5012806;28;20222;-62
2022/06/05 05:57:08;;;;;;;9.73;8.10;;;;;;;23.39;54.14;95115.28;5010681;28;20225;-66
2022/06/05 05:59:34;;;;;;;9.10;8.18;;;;;;;23.44;54.14;95118.09;5013403;28;20226;-69
2022/06/05 06:02:00;;;;;;;8.75;7.50;;;;;;;23.58;53.88;95122.25;5012491;28;20258;-65
2022/06/05 06:04:25;;;;;;;9.63;8.00;;;;;;;23.65;54.15;95128.31;5002136;28;20211;-67
2022/06/05 06:06:51;;;;;;;10.20;8.23;;;;;;;23.72;53.85;95126.38;5011431;28;20231;-65
2022/06/05 06:09:19;;;;;;;11.35;9.90;;;;;;;23.77;53.90;95125.69;5010325;28;20232;-65
2022/06/05 06:11:45;;;;;;;9.35;8.45;;;;;;;23.85;53.46;95119.97;5008351;28;20274;-64
2022/06/05 06:14:16;;;;;;;16.50;9.20;;;;;;;23.91;53.44;95124.41;5008007;28;20274;-67
2022/06/05 06:16:41;;;;;;;11.30;8.70;;;;;;;24.01;53.60;95126.53;5010439;28;20303;-63
2022/06/05 06:19:07;;;;;;;9.95;8.95;;;;;;;24.03;53.72;95135.19;5020440;28;20207;-63
2022/06/05 06:21:33;;;;;;;12.63;9.18;;;;;;;24.10;53.45;95125.13;5011081;28;20242;-62
2022/06/05 06:23:59;;;;;;;12.77;9.52;;;;;;;24.21;52.86;95129.66;5007317;28;20218;-67
2022/06/05 06:26:24;;;;;;;12.90;10.20;;;;;;;24.21;52.89;95123.47;5008294;28;20264;-68
2022/06/05 06:28:50;;;;;;;11.23;9.68;;;;;;;24.28;53.78;95118.81;5012769;28;20226;-64
2022/06/05 06:31:16;;;;;;;12.95;10.43;;;;;;;24.39;53.42;95131.41;5008555;28;20214;-66
2022/06/05 06:33:42;;;;;;;16.25;10.77;;;;;;;24.38;53.22;95126.28;5007483;28;20229;-62
2022/06/05 06:36:11;;;;;;;13.93;9.60;;;;;;;24.44;52.49;95117.31;5014385;28;20231;-64
2022/06/05 06:38:37;;;;;;;10.95;9.65;;;;;;;24.51;52.91;95123.38;5039990;28;20223;-65
2022/06/05 06:41:09;;;;;;;10.88;9.70;;;;;;;24.61;53.05;95110.13;5041321;28;20260;-63
2022/06/05 06:43:36;;;;;;;10.80;9.80;;;;;;;24.61;52.90;95114.72;5025401;28;20230;-67
2022/06/05 06:46:02;;;;;;;13.48;9.30;;;;;;;24.59;52.96;95111.44;5006278;28;20235;-63
2022/06/05 06:48:28;;;;;;;10.73;8.88;;;;;;;24.81;52.84;95109.75;5012542;28;20223;-69
2022/06/05 06:50:55;;;;;;;13.25;8.90;;;;;;;24.84;52.78;95111.16;5007101;28;20286;-67
2022/06/05 06:53:21;;;;;;;11.45;10.15;;;;;;;24.92;52.94;95118.03;5008060;28;20295;-66
2022/06/05 06:55:47;;;;;;;12.25;9.25;;;;;;;24.88;53.00;95112.28;5011290;28;20306;-65
2022/06/05 06:58:12;;;;;;;9.63;8.63;;;;;;;24.86;52.51;95119.81;5011208;28;20200;-64
2022/06/05 07:00:38;;;;;;;12.05;8.57;;;;;;;24.81;52.59;95114.31;5010312;28;20235;-63
2022/06/05 07:03:04;;;;;;;11.23;10.15;;;;;;;24.85;52.33;95113.59;5009003;28;20231;-66
2022/06/05 07:05:29;;;;;;;10.60;9.55;;;;;;;24.84;52.24;95113.84;5010614;28;20227;-67
2022/06/05 07:07:55;;;;;;;10.85;9.38;;;;;;;24.88;52.85;95117.66;5011518;28;20238;-65
2022/06/05 07:10:21;;;;;;;10.88;9.45;;;;;;;24.92;52.39;95105.41;5011693;28;20230;-66
2022/06/05 07:12:47;;;;;;;11.02;9.38;;;;;;;24.92;52.73;95108.09;5012515;28;20247;-64
2022/06/05 07:15:13;;;;;;;10.05;8.38;;;;;;;24.94;52.29;95099.75;5040394;28;20249;-63
2022/06/05 07:17:38;;;;;;;9.25;8.23;;;;;;;25.02;52.32;95102.91;5041910;28;20461;-64
2022/06/05 07:20:04;;;;;;;9.93;8.25;;;;;;;25.14;51.90;95112.78;5001345;28;20250;-67
2022/06/05 07:22:30;;;;;;;10.00;8.05;;;;;;;25.21;52.18;95108.13;5014273;28;20207;-66
2022/06/05 07:24:55;;;;;;;8.30;7.45;;;;;;;25.31;51.62;95113.66;5006029;28;20210;-62
2022/06/05 07:27:21;;;;;;;9.10;8.13;;;;;;;25.40;51.97;95104.16;5016170;28;20222;-67
2022/06/05 07:29:46;;;;;;;9.73;7.63;;;;;;;25.60;50.29;95111.75;5010687;28;20226;-67
2022/06/05 07:32:13;;;;;;;9.68;7.88;;;;;;;25.58;48.99;95110.38;4993753;28;20713;-62
2022/06/05 07:34:39;;;;;;;8.77;7.68;;;;;;;25.52;48.98;95101.41;5007330;28;20237;-67
2022/06/05 07:37:05;;;;;;;11.30;7.60;;;;;;;25.61;48.42;95099.09;5006576;28;20224;-64
2022/06/05 07:39:30;;;;;;;8.85;7.47;;;;;;;25.64;48.86;95098.66;5007408;28;20230;-63
2022/06/05 07:41:58;;;;;;;8.48;6.43;;;;;;;25.58;49.67;95099.59;4997963;28;20271;-68
2022/06/05 07:44:25;;;;;;;9.80;6.70;;;;;;;25.59;49.24;95095.88;5010191;28;20218;-63
2022/06/05 07:46:51;;;;;;;8.35;6.40;;;;;;;25.60;48.55;95095.59;5008040;28;20223;-67
2022/06/05 07:49:17;;;;;;;10.40;6.80;;;;;;;25.59;48.88;95095.88;5024285;28;20211;-67
2022/06/05 07:54:37;;;;;;;8.30;6.40;;;;;;;25.80;48.91;95086.25;5008155;28;20781;-65
2022/06/05 07:57:04;;;;;;;9.57;6.90;;;;;;;25.71;47.27;95085.81;5005739;28;20215;-66
2022/06/05 07:59:33;;;;;;;11.27;7.00;;;;;;;25.79;48.09;95084.59;5007480;28;20218;-62
2022/06/05 08:02:03;;;;;;;8.02;7.22;;;;;;;25.80;49.25;95075.47;5010905;28;20230;-68
2022/06/05 08:04:30;;;;;;;8.05;6.15;;;;;;;25.80;47.26;95081.66;5008790;28;20341;-67
2022/06/05 08:06:57;;;;;;;6.85;6.22;;;;;;;25.88;47.08;95083.16;5040819;28;20349;-64
2022/06/05 08:09:23;;;;;;;7.82;7.15;;;;;;;25.79;48.10;95088.09;5040613;28;20219;-63
2022/06/05 08:11:49;;;;;;;7.35;6.60;;;;;;;25.81;48.04;95077.09;5007570;28;20230;-66
2022/06/05 08:14:15;;;;;;;7.15;6.45;;;;;;;25.95;47.89;95084.63;5042094;28;20491;-69
2022/06/05 08:16:43;;;;;;;7.65;6.53;;;;;;;25.84;47.93;95082.03;5008646;28;20203;-63
2022/06/05 08:19:11;;;;;;;6.55;5.85;;;;;;;25.94;47.84;95079.47;5009342;28;20198;-67
2022/06/05 08:21:36;;;;;;;7.30;6.53;;;;;;;26.03;47.29;95074.50;5043896;28;20230;-65
2022/06/05 08:24:02;;;;;;;8.05;5.97;;;;;;;26.02;47.17;95083.66;5006044;28;20219;-62
2022/06/05 08:26:27;;;;;;;7.38;6.20;;;;;;;26.10;46.89;95083.22;5033550;28;20219;-62
2022/06/05 08:28:52;;;;;;;7.30;5.82;;;;;;;26.09;46.38;95076.19;5040158;28;20227;-68
2022/06/05 08:31:18;;;;;;;7.32;5.63;;;;;;;26.14;46.66;95070.88;5010733;28;20511;-68
2022/06/05 08:33:44;;;;;;;6.70;5.80;;;;;;;26.14;46.94;95077.09;5005696;28;20237;-63
2022/06/05 08:36:10;;;;;;;7.70;5.93;;;;;;;26.12;45.96;95076.53;5008461;28;20218;-64
2022/06/05 08:41:30;;;;;;;6.78;5.90;;;;;;;26.20;46.68;95069.91;4987549;28;20242;-68
2022/06/05 08:44:04;;;;;;;7.28;6.15;;;;;;;26.35;46.74;95066.59;5010780;28;20228;-62
2022/06/05 08:46:39;;;;;;;9.20;6.50;;;;;;;26.31;46.62;95070.84;5005466;28;20210;-63
2022/06/05 08:49:11;;;;;;;6.95;5.70;;;;;;;26.36;45.74;95079.81;5008267;28;20206;-61
2022/06/05 08:52:00;;;;;;;7.07;4.95;;;;;;;26.24;44.43;95076.41;5008271;28;20218;-62
2022/06/05 08:54:52;;;;;;;6.57;4.85;;;;;;;26.25;43.37;95067.28;5036491;28;20222;-67
2022/06/05 08:57:27;;;;;;;5.68;5.07;;;;;;;26.35;44.74;95077.38;4996299;28;20211;-62
2022/06/05 09:00:02;;;;;;;8.55;5.13;;;;;;;26.49;43.51;95075.13;5011059;28;20230;-65
2022/06/05 09:02:36;;;;;;;6.18;4.68;;;;;;;26.54;43.29;95069.81;5020813;28;20226;-63
2022/06/05 09:05:23;;;;;;;9.48;4.97;;;;;;;26.57;43.13;95064.75;5014935;28;20278;-64
2022/06/05 09:07:52;;;;;;;7.38;4.32;;;;;;;26.65;41.03;95068.06;5009873;28;20335;-62
2022/06/05 09:10:24;;;;;;;4.20;3.80;;;;;;;26.61;41.16;95067.75;5018803;28;20204;-64
2022/06/05 09:12:57;;;;;;;5.47;4.25;;;;;;;26.66;39.83;95061.63;5005792;28;21034;-68
2022/06/05 09:15:30;;;;;;;5.85;4.03;;;;;;;26.58;39.93;95049.41;5014983;28;20228;-68
2022/06/05 09:17:58;;;;;;;8.35;4.28;;;;;;;26.69;40.32;95053.84;5002411;28;20239;-67
2022/06/05 09:20:34;;;;;;;9.20;4.22;;;;;;;26.77;39.77;95045.28;5012209;28;20217;-64
2022/06/05 09:23:07;;;;;;;8.73;3.78;;;;;;;26.84;39.49;95045.94;5039710;28;20213;-68
2022/06/05 09:25:43;;;;;;;4.43;3.78;;;;;;;26.76;39.08;95043.69;5039202;28;20210;-63
2022/06/05 09:28:20;;;;;;;7.00;4.43;;;;;;;26.89;40.49;95052.44;5014588;28;20209;-67
2022/06/05 09:30:56;;;;;;;7.07;3.88;;;;;;;27.05;39.37;95046.13;5010947;28;20230;-67
2022/06/05 09:33:25;;;;;;;5.35;3.85;;;;;;;27.17;38.11;95048.72;5029035;28;20240;-63
2022/06/05 09:35:57;;;;;;;5.43;3.50;;;;;;;27.19;38.91;95043.88;5009456;28;20222;-66
2022/06/05 09:38:44;;;;;;;5.70;3.92;;;;;;;27.34;37.68;95045.91;5021794;28;20226;-68
2022/06/05 09:41:31;;;;;;;4.72;3.70;;;;;;;27.30;37.47;95042.09;4999234;28;20249;-67
2022/06/05 09:44:18;;;;;;;6.78;4.07;;;;;;;27.44;37.18;95041.41;4997601;28;20284;-64
2022/06/05 09:47:01;;;;;;;4.53;3.55;;;;;;;27.59;36.15;95031.81;5044282;28;20417;-66
2022/06/05 09:49:45;;;;;;;4.30;3.90;;;;;;;27.57;37.29;95028.56;5009169;28;20191;-67
2022/06/05 09:52:27;;;;;;;5.55;3.83;;;;;;;27.51;37.29;95043.91;5040571;28;20218;-67
2022/06/05 09:55:08;;;;;;;7.70;3.88;;;;;;;27.70;37.13;95033.53;5011380;28;20262;-68
2022/06/05 10:00:27;;;;;;;4.97;3.60;;;;;;;27.92;35.59;95041.53;5012733;28;20232;-66
2022/06/05 10:02:59;;;;;;;5.55;3.50;;;;;;;27.98;35.54;95029.69;5037805;28;20240;-63
2022/06/05 10:05:29;;;;;;;7.70;3.58;;;;;;;28.08;35.66;95023.53;5041938;28;20285;-63
2022/06/05 10:08:19;;;;;;;5.38;3.55;;;;;;;28.19;35.58;95032.50;5040148;28;20326;-67
2022/06/05 10:10:46;;;;;;;4.70;3.72;;;;;;;28.31;35.07;95035.84;5039089;28;20210;-62
2022/06/05 10:13:22;;;;;;;4.85;3.65;;;;;;;28.47;35.56;95026.75;5007908;28;20199;-66
2022/06/05 10:16:38;;;;;;;5.53;3.30;;;;;;;28.63;33.54;95018.66;5003150;28;20223;-68
2022/06/05 10:19:10;;;;;;;5.40;3.42;;;;;;;28.63;33.56;95024.06;4986357;28;20231;-66
2022/06/05 10:21:40;;;;;;;5.00;4.15;;;;;;;28.69;33.77;95013.03;4969368;28;20255;-66
2022/06/05 10:24:26;;;;;;;5.68;3.70;;;;;;;28.87;33.03;95013.59;4965621;28;20229;-66
2022/06/05 10:26:56;;;;;;;3.72;3.42;;;;;;;28.95;33.52;95010.38;4956358;28;20232;-63
2022/06/05 10:29:35;;;;;;;6.20;4.05;;;;;;;29.02;32.88;95017.16;4953521;28;20323;-65
2022/06/05 10:32:00;;;;;;;3.88;3.30;;;;;;;29.13;32.70;95009.91;4967494;28;20240;-67
2022/06/05 10:35:02;;;;;;;4.03;3.30;;;;;;;28.86;33.42;95010.09;4965976;28;20223;-66
2022/06/05 10:37:38;;;;;;;4.00;3.67;;;;;;;29.23;32.55;95011.81;4953985;28;20547;-68
2022/06/05 10:40:17;;;;;;;5.93;3.88;;;;;;;29.21;32.93;95005.84;4969556;28;20208;-66
2022/06/05 10:42:58;;;;;;;5.32;3.70;;;;;;;29.17;33.88;95002.06;4953574;28;20220;-68
2022/06/05 10:45:39;;;;;;;5.80;4.13;;;;;;;29.35;33.61;95006.97;4967731;28;20228;-65
2022/06/05 10:48:30;;;;;;;5.28;4.22;;;;;;;29.56;32.74;95005.03;4953831;28;20286;-63
2022/06/05 10:51:11;;;;;;;6.22;3.47;;;;;;;29.54;32.62;94987.44;4922843;29;20233;-69
2022/06/05 10:53:39;;;;;;;5.13;3.78;;;;;;;29.41;32.22;94992.34;4924337;28;20224;-64
2022/06/05 10:56:28;;;;;;;5.75;3.90;;;;;;;29.55;32.95;94981.75;4946319;28;20229;-64
2022/06/05 10:59:06;;;;;;;4.30;3.47;;;;;;;29.92;31.64;94988.78;4959855;28;20227;-66
2022/06/05 11:01:43;;;;;;;4.13;3.70;;;;;;;30.16;31.57;94990.91;4943553;28;20216;-65
2022/06/05 11:04:25;;;;;;;4.18;3.80;;;;;;;30.27;31.61;94984.41;4953773;28;20239;-62
2022/06/05 11:07:19;;;;;;;3.90;3.50;;;;;;;30.39;31.80;94974.03;4939519;28;20254;-63
2022/06/05 11:09:51;;;;;;;4.45;3.90;;;;;;;30.56;31.03;94970.97;4944771;28;20267;-63
2022/06/05 11:15:22;;;;;;;5.47;3.90;;;;;;;30.08;31.67;94979.53;4958751;28;20267;-63
2022/06/05 11:18:18;;;;;;;4.75;4.00;;;;;;;30.06;31.69;94976.28;4939286;28;20284;-69
2022/06/05 11:20:52;;;;;;;4.50;3.50;;;;;;;29.94;32.08;94967.66;4940563;28;20225;-69
2022/06/05 11:23:21;;;;;;;4.72;3.35;;;;;;;30.35;30.92;94966.75;4944788;28;20224;-69
2022/06/05 11:26:05;;;;;;;4.55;3.47;;;;;;;30.54;29.08;94962.31;4942809;28;20228;-66
2022/06/05 11:28:45;;;;;;;3.35;2.90;;;;;;;30.31;30.00;94964.59;4986033;28;20245;-67
2022/06/05 11:31:32;;;;;;;5.65;3.13;;;;;;;30.54;29.98;94962.31;5005350;28;20297;-64
2022/06/05 11:34:21;;;;;;;3.45;2.85;;;;;;;30.87;29.40;94959.97;5008933;28;20253;-61
2022/06/05 11:36:51;;;;;;;7.88;3.22;;;;;;;31.14;29.09;94962.22;5008559;28;20226;-63
2022/06/05 11:39:27;;;;;;;2.60;2.40;;;;;;;31.44;27.94;94953.09;5005436;28;20227;-65
2022/06/05 11:42:34;;;;;;;4.85;2.53;;;;;;;31.51;25.40;94967.13;4995781;28;20282;-63
2022/06/05 11:45:15;;;;;;;5.13;2.25;;;;;;;31.52;24.34;94957.09;4964610;28;20227;-63
2022/06/05 11:48:02;;;;;;;1.98;1.80;;;;;;;31.82;22.83;94945.91;4973438;28;20226;-64
2022/06/05 11:50:47;;;;;;;4.82;1.77;;;;;;;31.76;22.42;94955.22;4984939;28;20228;-67
2022/06/05 11:53:51;;;;;;;3.40;2.10;;;;;;;31.84;23.29;94945.66;4989062;28;20277;-65
2022/06/05 11:56:35;;;;;;;2.72;2.10;;;;;;;32.23;23.03;94945.50;4895985;29;20259;-65
2022/06/05 11:59:24;;;;;;;2.95;1.80;;;;;;;32.90;21.96;94959.06;4912475;29;20230;-70
2022/06/05 12:02:08;;;;;;;2.47;1.55;;;;;;;32.71;21.14;94941.94;4852549;29;20239;-65
2022/06/05 12:04:56;;;;;;;2.35;1.80;;;;;;;32.07;22.23;94939.41;4861803;29;20342;-63
2022/06/05 12:07:27;;;;;;;4.18;1.85;;;;;;;31.56;23.74;94950.78;4854633;29;20250;-69
2022/06/05 12:10:10;;;;;;;3.78;2.00;;;;;;;30.49;24.78;94944.13;4856688;29;20275;-65
2022/06/05 12:12:58;;;;;;;2.03;1.83;;;;;;;30.50;24.66;94943.06;4857483;29;20235;-68
2022/06/05 12:16:04;;;;;;;5.10;2.28;;;;;;;30.48;24.71;94941.72;5017787;27;20580;-64
2022/06/05 12:18:39;;;;;;;2.00;1.80;;;;;;;31.25;24.39;94947.50;5013670;28;20222;-65
2022/06/05 12:21:21;;;;;;;2.00;1.80;;;;;;;31.83;23.86;94935.84;5028223;28;20261;-67